Time;durP1;ratioP1;P1;durP2;ratioP2;P2;SDS_P1;SDS_P2;PMS_P1;PMS_P2;Temp;Humidity;BMP_temperature;BMP_pressure;BME280_temperature;BME280_humidity;BME280_pressure;Samples;Min_cycle;Max_cycle;Signal;HPM_P1;HPM_P2
2022/08/07 00:01:42;;;;;;;11.77;10.97;;;11.40;99.90;;;;;;5047072;28;20980;-66
2022/08/07 00:04:09;;;;;;;10.87;9.40;;;11.30;99.90;;;;;;5044304;28;20469;-67
2022/08/07 00:06:37;;;;;;;10.57;9.60;;;11.30;99.90;;;;;;5047606;28;20460;-66
2022/08/07 00:09:04;;;;;;;11.10;10.40;;;11.30;99.90;;;;;;5043017;28;20783;-66
2022/08/07 00:11:32;;;;;;;10.60;9.80;;;11.20;99.90;;;;;;5041050;28;20461;-66
2022/08/07 00:14:00;;;;;;;11.00;10.30;;;11.10;99.90;;;;;;5045695;28;20850;-66
2022/08/07 00:16:29;;;;;;;12.27;11.30;;;11.10;99.90;;;;;;5045138;28;20488;-66
2022/08/07 00:18:55;;;;;;;11.80;11.00;;;11.10;99.90;;;;;;5040216;28;20473;-66
2022/08/07 00:21:22;;;;;;;10.87;10.20;;;11.10;99.90;;;;;;5046215;28;20462;-66
2022/08/07 00:23:49;;;;;;;11.10;10.27;;;11.00;99.90;;;;;;5038926;28;20484;-66
2022/08/07 00:26:16;;;;;;;11.87;11.07;;;10.90;99.90;;;;;;5039448;28;20460;-66
2022/08/07 00:28:44;;;;;;;11.57;10.80;;;10.90;99.90;;;;;;5038654;28;20848;-66
2022/08/07 00:31:11;;;;;;;12.07;11.17;;;10.80;99.90;;;;;;5049156;28;20464;-66
2022/08/07 00:33:40;;;;;;;11.63;10.97;;;10.80;99.90;;;;;;5045874;28;20460;-68
2022/08/07 00:36:08;;;;;;;13.87;10.93;;;10.80;99.90;;;;;;5042782;28;20463;-68
2022/08/07 00:38:36;;;;;;;11.60;10.90;;;10.80;99.90;;;;;;5047227;28;20873;-69
2022/08/07 00:41:05;;;;;;;11.90;11.10;;;10.70;99.90;;;;;;5040595;28;20825;-68
2022/08/07 00:43:33;;;;;;;13.17;10.97;;;10.70;99.90;;;;;;5041105;28;20464;-68
2022/08/07 00:46:01;;;;;;;11.30;10.33;;;10.70;99.90;;;;;;5042966;28;20515;-68
2022/08/07 00:48:29;;;;;;;10.70;10.10;;;10.80;99.90;;;;;;5039922;28;20473;-68
2022/08/07 00:50:58;;;;;;;12.20;11.30;;;10.70;99.90;;;;;;5042803;28;20542;-68
2022/08/07 00:53:26;;;;;;;12.13;11.33;;;10.60;99.90;;;;;;5040476;28;20518;-69
2022/08/07 00:55:54;;;;;;;11.00;10.20;;;10.60;99.90;;;;;;5040528;28;20468;-69
2022/08/07 00:58:21;;;;;;;11.37;10.53;;;10.70;99.90;;;;;;5040430;28;20491;-68
2022/08/07 01:00:49;;;;;;;11.10;10.50;;;10.70;99.90;;;;;;5039495;28;20637;-69
2022/08/07 01:03:16;;;;;;;10.60;9.90;;;10.60;99.90;;;;;;5045270;28;20466;-68
2022/08/07 01:05:45;;;;;;;10.90;10.13;;;10.60;99.90;;;;;;5044233;28;20511;-68
2022/08/07 01:08:15;;;;;;;11.50;10.77;;;10.60;99.90;;;;;;5042310;28;20488;-68
2022/08/07 01:10:42;;;;;;;11.27;10.57;;;10.50;99.90;;;;;;5046235;28;20457;-68
2022/08/07 01:13:09;;;;;;;10.50;9.97;;;10.40;99.90;;;;;;5038287;28;20475;-68
2022/08/07 01:15:37;;;;;;;11.57;10.73;;;10.30;99.90;;;;;;5046429;28;20487;-68
2022/08/07 01:18:05;;;;;;;12.20;11.20;;;10.30;99.90;;;;;;5042174;28;20468;-69
2022/08/07 01:20:38;;;;;;;10.50;9.90;;;10.20;99.90;;;;;;5044333;28;20865;-68
2022/08/07 01:23:07;;;;;;;11.13;10.43;;;10.20;99.90;;;;;;5040357;28;20461;-68
2022/08/07 01:25:36;;;;;;;11.97;11.10;;;10.10;99.90;;;;;;5045958;28;20463;-68
2022/08/07 01:28:04;;;;;;;12.00;10.80;;;10.00;99.90;;;;;;5040634;28;20840;-69
2022/08/07 01:30:32;;;;;;;11.37;10.77;;;10.00;99.90;;;;;;5046375;28;20463;-69
2022/08/07 01:32:59;;;;;;;12.03;11.00;;;10.00;99.90;;;;;;5042121;28;20467;-68
2022/08/07 01:35:28;;;;;;;12.23;11.30;;;10.10;99.90;;;;;;5043703;28;20506;-68
2022/08/07 01:37:56;;;;;;;12.30;11.30;;;10.20;99.90;;;;;;5041827;28;20491;-69
2022/08/07 01:40:28;;;;;;;12.07;11.37;;;10.20;99.90;;;;;;5041064;28;20936;-68
2022/08/07 01:42:56;;;;;;;11.77;10.47;;;10.20;99.90;;;;;;5041014;28;20460;-69
2022/08/07 01:45:23;;;;;;;12.47;11.47;;;10.10;99.90;;;;;;5040023;28;20484;-69
2022/08/07 01:47:52;;;;;;;11.90;11.00;;;10.10;99.90;;;;;;5041753;28;20546;-69
2022/08/07 01:50:18;;;;;;;12.13;10.97;;;10.00;99.90;;;;;;5043530;28;20838;-69
2022/08/07 01:52:47;;;;;;;11.77;11.00;;;9.90;99.90;;;;;;5041708;28;20629;-69
2022/08/07 01:55:16;;;;;;;12.60;11.60;;;9.80;99.90;;;;;;5041833;28;20971;-69
2022/08/07 01:57:48;;;;;;;13.07;11.77;;;9.80;99.90;;;;;;5041008;28;20459;-69
2022/08/07 02:00:16;;;;;;;12.17;11.07;;;9.80;99.90;;;;;;5042348;28;20467;-69
2022/08/07 02:02:46;;;;;;;11.67;10.67;;;9.70;99.90;;;;;;5047292;28;20822;-68
2022/08/07 02:05:17;;;;;;;13.77;12.37;;;9.60;99.90;;;;;;5043640;28;21037;-69
2022/08/07 02:07:50;;;;;;;13.10;12.20;;;9.60;99.90;;;;;;5042421;28;20836;-70
2022/08/07 02:10:22;;;;;;;12.60;11.30;;;9.70;99.90;;;;;;5038597;28;20461;-69
2022/08/07 02:12:56;;;;;;;12.30;11.50;;;9.80;99.90;;;;;;5045334;28;20499;-70
2022/08/07 02:15:26;;;;;;;11.83;11.13;;;9.80;99.90;;;;;;5044509;28;20480;-68
2022/08/07 02:17:54;;;;;;;13.20;12.30;;;9.80;99.90;;;;;;5042859;28;20560;-69
2022/08/07 02:20:23;;;;;;;12.10;11.20;;;9.90;99.90;;;;;;5040274;28;20981;-69
2022/08/07 02:22:56;;;;;;;11.93;11.17;;;9.90;99.90;;;;;;5045085;28;20531;-69
2022/08/07 02:25:24;;;;;;;12.17;11.20;;;9.80;99.90;;;;;;5038391;28;20808;-69
2022/08/07 02:27:54;;;;;;;13.03;11.70;;;9.70;99.90;;;;;;5037375;28;20456;-69
2022/08/07 02:30:21;;;;;;;12.90;12.07;;;9.60;99.90;;;;;;5045936;28;20500;-70
2022/08/07 02:32:51;;;;;;;13.60;12.40;;;9.70;99.90;;;;;;5034224;28;20576;-69
2022/08/07 02:35:19;;;;;;;13.30;12.00;;;9.70;99.90;;;;;;5039490;28;20822;-69
2022/08/07 02:37:48;;;;;;;13.00;11.90;;;9.60;99.90;;;;;;5041450;28;20621;-69
2022/08/07 02:40:16;;;;;;;13.63;12.63;;;9.60;99.90;;;;;;5045280;28;20479;-69
2022/08/07 02:42:43;;;;;;;12.83;11.90;;;9.50;99.90;;;;;;5043460;28;20467;-69
2022/08/07 02:45:16;;;;;;;13.30;12.20;;;9.40;99.90;;;;;;5040195;28;20487;-68
2022/08/07 02:47:44;;;;;;;12.93;12.13;;;9.40;99.90;;;;;;5037275;28;20467;-68
2022/08/07 02:50:13;;;;;;;13.17;12.10;;;9.50;99.90;;;;;;5040903;28;20523;-69
2022/08/07 02:52:45;;;;;;;13.57;12.17;;;9.50;99.90;;;;;;5041006;28;20460;-69
2022/08/07 02:55:15;;;;;;;13.47;12.50;;;9.50;99.90;;;;;;5042536;28;20464;-69
2022/08/07 02:57:46;;;;;;;12.97;12.07;;;9.50;99.90;;;;;;5042445;28;20464;-68
2022/08/07 03:00:15;;;;;;;13.43;12.43;;;9.50;99.90;;;;;;5039091;28;20818;-69
2022/08/07 03:02:46;;;;;;;13.40;12.30;;;9.50;99.90;;;;;;5041165;28;20569;-69
2022/08/07 03:05:17;;;;;;;13.90;13.00;;;9.40;99.90;;;;;;5042215;28;20475;-69
2022/08/07 03:07:47;;;;;;;13.40;12.30;;;9.30;99.90;;;;;;5039242;28;20488;-68
2022/08/07 03:10:16;;;;;;;14.50;13.20;;;9.30;99.90;;;;;;5044803;28;20511;-69
2022/08/07 03:12:45;;;;;;;13.63;12.63;;;9.30;99.90;;;;;;5045899;28;20464;-69
2022/08/07 03:15:14;;;;;;;13.90;12.73;;;9.30;99.90;;;;;;5043478;28;20521;-68
2022/08/07 03:17:42;;;;;;;13.77;12.47;;;9.40;99.90;;;;;;5041258;28;20471;-69
2022/08/07 03:20:11;;;;;;;13.57;12.20;;;9.40;99.90;;;;;;5039451;28;20465;-69
2022/08/07 03:22:40;;;;;;;13.10;12.10;;;9.40;99.90;;;;;;5040146;28;20464;-68
2022/08/07 03:25:07;;;;;;;13.20;12.07;;;9.30;99.90;;;;;;5038280;28;20460;-69
2022/08/07 03:27:35;;;;;;;13.33;12.37;;;9.30;99.90;;;;;;5044536;28;20977;-70
2022/08/07 03:30:02;;;;;;;14.17;13.17;;;9.20;99.90;;;;;;5040642;28;20578;-69
2022/08/07 03:32:36;;;;;;;13.60;12.70;;;9.20;99.90;;;;;;5039533;28;20520;-68
2022/08/07 03:35:05;;;;;;;12.87;12.03;;;9.10;99.90;;;;;;5033902;28;20463;-69
2022/08/07 03:37:35;;;;;;;14.23;13.00;;;9.10;99.90;;;;;;5040514;28;20483;-69
2022/08/07 03:40:04;;;;;;;14.87;13.77;;;9.00;99.90;;;;;;5037084;28;20468;-69
2022/08/07 03:42:34;;;;;;;13.37;12.47;;;8.90;99.90;;;;;;5044464;28;20464;-69
2022/08/07 03:45:02;;;;;;;14.23;13.40;;;8.80;99.90;;;;;;5041244;28;20507;-69
2022/08/07 03:47:31;;;;;;;13.77;12.87;;;8.80;99.90;;;;;;5038579;28;20460;-69
2022/08/07 03:49:58;;;;;;;15.20;14.20;;;8.80;99.90;;;;;;5039100;28;20498;-68
2022/08/07 03:52:28;;;;;;;13.43;12.40;;;8.90;99.90;;;;;;5041205;28;20471;-68
2022/08/07 03:54:57;;;;;;;13.87;12.80;;;8.90;99.90;;;;;;5042538;28;20960;-69
2022/08/07 03:57:26;;;;;;;14.80;13.50;;;8.90;99.90;;;;;;5040877;28;20525;-68
2022/08/07 03:59:53;;;;;;;13.20;12.30;;;8.90;99.90;;;;;;5038582;28;20457;-68
2022/08/07 04:02:20;;;;;;;15.13;13.77;;;8.90;99.90;;;;;;5026337;28;20570;-69
2022/08/07 04:04:48;;;;;;;15.07;13.87;;;8.80;99.90;;;;;;5013858;28;20806;-69
2022/08/07 04:07:17;;;;;;;14.47;13.27;;;8.70;99.90;;;;;;5014342;28;20842;-68
2022/08/07 04:09:44;;;;;;;15.70;14.30;;;8.70;99.90;;;;;;5014941;28;20492;-69
2022/08/07 04:12:11;;;;;;;14.33;13.00;;;8.70;99.90;;;;;;5015899;28;20502;-68
2022/08/07 04:14:40;;;;;;;15.20;14.10;;;8.70;99.90;;;;;;5015901;28;20468;-69
2022/08/07 04:17:07;;;;;;;15.33;14.07;;;8.60;99.90;;;;;;5034683;28;20490;-70
2022/08/07 04:19:34;;;;;;;14.70;13.70;;;8.60;99.90;;;;;;5035229;28;20466;-70
2022/08/07 04:22:03;;;;;;;15.77;14.70;;;8.60;99.90;;;;;;5033746;28;20455;-68
2022/08/07 04:24:30;;;;;;;15.70;14.60;;;8.50;99.90;;;;;;5036058;28;21146;-69
2022/08/07 04:26:58;;;;;;;14.87;13.77;;;8.50;99.90;;;;;;5035030;28;20911;-69
2022/08/07 04:29:25;;;;;;;15.93;14.80;;;8.50;99.90;;;;;;5035201;28;20628;-68
2022/08/07 04:31:53;;;;;;;16.23;15.00;;;8.50;99.90;;;;;;5039254;28;20465;-69
2022/08/07 04:34:22;;;;;;;15.10;14.07;;;8.50;99.90;;;;;;5040174;28;20536;-69
2022/08/07 04:36:48;;;;;;;15.07;14.07;;;8.60;99.90;;;;;;5038599;28;20455;-69
2022/08/07 04:39:17;;;;;;;16.07;14.63;;;8.70;99.90;;;;;;5039742;28;20462;-69
2022/08/07 04:41:43;;;;;;;16.33;15.23;;;8.80;99.90;;;;;;5037856;28;20455;-68
2022/08/07 04:44:11;;;;;;;16.73;15.23;;;8.80;99.90;;;;;;5038520;28;20475;-69
2022/08/07 04:46:44;;;;;;;17.27;15.87;;;8.80;99.90;;;;;;5039264;28;20637;-68
2022/08/07 04:49:18;;;;;;;16.07;14.67;;;8.90;99.90;;;;;;5038486;28;23379;-68
2022/08/07 04:51:53;;;;;;;16.77;15.57;;;8.90;99.90;;;;;;5037433;28;20532;-69
2022/08/07 04:54:28;;;;;;;16.67;15.37;;;8.90;99.90;;;;;;5038094;28;20727;-69
2022/08/07 04:57:02;;;;;;;15.57;14.33;;;9.00;99.90;;;;;;5037812;28;20459;-70
2022/08/07 04:59:34;;;;;;;15.33;14.03;;;9.10;99.90;;;;;;5038255;28;20463;-68
2022/08/07 05:02:05;;;;;;;15.00;13.90;;;9.10;99.90;;;;;;5038717;28;20781;-68
2022/08/07 05:04:37;;;;;;;16.07;14.87;;;9.20;99.90;;;;;;5039123;28;20473;-70
2022/08/07 05:07:11;;;;;;;17.20;15.90;;;9.30;99.90;;;;;;5037699;28;20832;-68
2022/08/07 05:09:43;;;;;;;15.77;14.67;;;9.40;99.90;;;;;;5037138;28;20494;-70
2022/08/07 05:12:14;;;;;;;16.13;14.93;;;9.60;99.90;;;;;;5038761;28;20466;-70
2022/08/07 05:14:44;;;;;;;17.30;15.97;;;9.60;99.90;;;;;;5038157;28;20507;-69
2022/08/07 05:17:15;;;;;;;15.80;14.60;;;9.70;99.90;;;;;;5038198;28;20497;-69
2022/08/07 05:19:46;;;;;;;16.47;15.07;;;9.90;99.90;;;;;;5037793;28;20841;-68
2022/08/07 05:22:15;;;;;;;18.90;17.40;;;10.00;99.90;;;;;;5036737;28;20471;-68
2022/08/07 05:24:45;;;;;;;16.70;15.20;;;10.00;99.90;;;;;;5037678;28;21024;-69
2022/08/07 05:27:15;;;;;;;19.03;17.37;;;10.10;99.90;;;;;;5037843;28;20467;-69
2022/08/07 05:29:43;;;;;;;18.20;16.30;;;10.20;99.90;;;;;;5037241;28;20494;-69
2022/08/07 05:32:13;;;;;;;17.90;16.43;;;10.30;99.90;;;;;;5037677;28;20482;-69
2022/08/07 05:34:41;;;;;;;17.57;16.17;;;10.40;99.90;;;;;;5036618;28;20466;-69
2022/08/07 05:37:09;;;;;;;16.80;15.40;;;10.60;99.90;;;;;;5036390;28;20475;-70
2022/08/07 05:39:37;;;;;;;17.20;15.90;;;10.70;99.90;;;;;;5037772;28;20827;-69
2022/08/07 05:42:06;;;;;;;18.50;16.90;;;10.80;99.90;;;;;;5036698;28;20503;-68
2022/08/07 05:44:36;;;;;;;18.20;16.53;;;11.00;99.90;;;;;;5036958;28;20474;-69
2022/08/07 05:47:03;;;;;;;21.00;16.20;;;11.10;99.90;;;;;;5036986;28;20493;-69
2022/08/07 05:49:32;;;;;;;18.10;16.67;;;11.20;99.90;;;;;;5037197;28;20553;-67
2022/08/07 05:51:59;;;;;;;18.80;17.23;;;11.40;99.90;;;;;;5036203;28;20558;-70
2022/08/07 05:54:26;;;;;;;18.43;16.80;;;11.50;99.90;;;;;;5037408;28;20730;-69
2022/08/07 05:56:55;;;;;;;17.63;16.23;;;11.60;99.90;;;;;;5037714;28;21201;-70
2022/08/07 05:59:26;;;;;;;19.80;18.13;;;11.70;99.90;;;;;;5037599;28;20578;-68
2022/08/07 06:01:55;;;;;;;18.07;16.57;;;11.80;99.90;;;;;;5033761;28;21145;-69
2022/08/07 06:04:23;;;;;;;17.87;16.47;;;11.90;99.90;;;;;;5034371;28;20704;-69
2022/08/07 06:06:51;;;;;;;17.77;16.13;;;12.10;99.90;;;;;;5034176;28;20551;-69
2022/08/07 06:09:18;;;;;;;18.77;17.07;;;12.20;99.90;;;;;;5035295;28;21072;-68
2022/08/07 06:11:46;;;;;;;18.00;16.40;;;12.30;99.90;;;;;;5034609;28;20966;-68
2022/08/07 06:14:13;;;;;;;19.87;17.37;;;12.50;99.90;;;;;;5035699;28;20474;-68
2022/08/07 06:16:45;;;;;;;18.13;16.50;;;12.70;99.90;;;;;;5035889;28;20730;-68
2022/08/07 06:19:14;;;;;;;17.80;15.80;;;12.80;99.90;;;;;;5036015;28;20485;-68
2022/08/07 06:21:43;;;;;;;17.93;16.37;;;13.00;99.90;;;;;;5034086;28;20856;-68
2022/08/07 06:24:10;;;;;;;17.10;15.47;;;13.10;99.90;;;;;;5034604;28;20456;-69
2022/08/07 06:26:39;;;;;;;16.57;15.07;;;13.20;99.90;;;;;;5034642;28;20901;-69
2022/08/07 06:29:06;;;;;;;17.13;15.70;;;13.30;99.90;;;;;;5034645;28;20525;-68
2022/08/07 06:31:34;;;;;;;16.47;15.00;;;13.50;99.90;;;;;;5033469;28;20584;-68
2022/08/07 06:34:02;;;;;;;17.27;15.73;;;13.60;99.90;;;;;;5034426;28;20471;-68
2022/08/07 06:36:29;;;;;;;16.60;15.30;;;13.80;99.90;;;;;;5034752;28;20467;-69
2022/08/07 06:38:56;;;;;;;16.23;14.93;;;14.00;99.90;;;;;;5032971;28;20506;-68
2022/08/07 06:41:27;;;;;;;15.80;14.47;;;14.20;99.90;;;;;;5033281;28;20481;-70
2022/08/07 06:43:54;;;;;;;15.83;14.50;;;14.30;99.90;;;;;;5035081;28;21087;-68
2022/08/07 06:46:21;;;;;;;14.40;13.17;;;14.40;99.90;;;;;;5034579;28;20863;-69
2022/08/07 06:48:48;;;;;;;14.90;13.53;;;14.60;99.90;;;;;;5034917;28;21060;-69
2022/08/07 06:51:20;;;;;;;16.37;14.93;;;14.70;99.90;;;;;;5029314;28;20499;-67
2022/08/07 06:53:48;;;;;;;15.90;14.67;;;14.90;99.90;;;;;;5033901;28;20455;-66
2022/08/07 06:56:38;;;;;;;15.93;14.90;;;15.00;99.90;;;;;;5033217;28;21182;-66
2022/08/07 06:59:06;;;;;;;15.70;14.60;;;15.20;99.90;;;;;;5033987;28;20465;-66
2022/08/07 07:01:33;;;;;;;15.53;14.57;;;15.30;99.90;;;;;;5033093;28;20470;-65
2022/08/07 07:04:01;;;;;;;15.70;14.57;;;15.50;99.90;;;;;;5034389;28;20921;-67
2022/08/07 07:06:29;;;;;;;15.70;14.50;;;15.60;99.90;;;;;;5034818;28;20528;-66
2022/08/07 07:08:56;;;;;;;15.27;14.17;;;15.80;99.90;;;;;;5034003;28;20477;-67
2022/08/07 07:11:23;;;;;;;14.00;12.90;;;15.90;99.90;;;;;;5034926;28;20491;-66
2022/08/07 07:13:54;;;;;;;14.70;13.50;;;16.10;99.90;;;;;;5032899;28;20475;-66
2022/08/07 07:16:23;;;;;;;13.63;12.80;;;16.30;99.90;;;;;;5034072;28;20736;-67
2022/08/07 07:18:55;;;;;;;13.80;12.90;;;16.50;99.90;;;;;;5034486;28;22334;-67
2022/08/07 07:21:27;;;;;;;16.07;14.40;;;16.60;99.90;;;;;;5034715;28;20452;-66
2022/08/07 07:23:56;;;;;;;13.53;12.60;;;16.80;99.90;;;;;;5030659;28;20502;-66
2022/08/07 07:26:23;;;;;;;13.10;12.30;;;17.00;99.90;;;;;;5034538;28;20470;-67
2022/08/07 07:28:57;;;;;;;12.70;12.10;;;17.10;99.90;;;;;;5034390;28;20484;-68
2022/08/07 07:31:27;;;;;;;12.10;11.40;;;17.20;99.90;;;;;;5034396;28;20519;-67
2022/08/07 07:34:03;;;;;;;12.53;11.73;;;17.40;99.90;;;;;;5039574;28;20468;-66
2022/08/07 07:36:33;;;;;;;13.10;12.30;;;17.60;99.90;;;;;;5059223;28;20466;-66
2022/08/07 07:39:03;;;;;;;13.73;12.60;;;17.80;99.90;;;;;;5034548;28;20463;-67
2022/08/07 07:41:32;;;;;;;13.73;12.93;;;17.90;99.90;;;;;;5032623;28;20547;-67
2022/08/07 07:44:01;;;;;;;13.13;12.43;;;18.00;99.90;;;;;;5034715;28;20467;-67
2022/08/07 07:46:30;;;;;;;13.00;12.20;;;18.20;99.90;;;;;;5034052;28;20563;-67
2022/08/07 07:49:00;;;;;;;13.10;12.27;;;18.30;99.90;;;;;;5034523;28;20468;-68
2022/08/07 07:51:29;;;;;;;13.73;12.83;;;18.50;99.90;;;;;;5034597;28;20576;-67
2022/08/07 07:53:58;;;;;;;13.57;12.77;;;18.70;99.90;;;;;;5034564;28;20465;-66
2022/08/07 07:56:29;;;;;;;13.63;12.63;;;18.80;99.90;;;;;;5033124;28;20491;-67
2022/08/07 07:58:57;;;;;;;13.40;12.50;;;18.80;99.90;;;;;;5033967;28;20551;-67
2022/08/07 08:01:25;;;;;;;13.10;12.50;;;18.90;99.90;;;;;;5032793;28;20460;-67
2022/08/07 08:03:55;;;;;;;12.93;12.20;;;19.00;99.90;;;;;;5037292;28;20555;-67
2022/08/07 08:06:24;;;;;;;13.60;12.90;;;19.20;99.90;;;;;;5038297;28;20923;-67
2022/08/07 08:08:53;;;;;;;13.43;12.53;;;19.30;99.90;;;;;;5038312;28;20453;-67
2022/08/07 08:11:21;;;;;;;12.90;12.30;;;19.50;99.90;;;;;;5037673;28;20498;-67
2022/08/07 08:13:50;;;;;;;13.30;12.50;;;19.60;99.90;;;;;;5037884;28;20474;-67
2022/08/07 08:16:20;;;;;;;13.53;12.77;;;19.70;99.90;;;;;;5037154;28;20511;-66
2022/08/07 08:18:50;;;;;;;13.70;12.70;;;20.10;99.90;;;;;;5037465;28;20474;-67
2022/08/07 08:29:32;;;;;;;12.60;12.00;;;20.40;99.90;;;;;;5037328;28;20823;-67
2022/08/07 08:32:01;;;;;;;12.60;12.00;;;20.70;99.90;;;;;;5037304;28;20594;-67
2022/08/07 08:34:30;;;;;;;13.00;12.30;;;20.60;99.90;;;;;;5037640;28;20653;-67
2022/08/07 08:36:58;;;;;;;12.70;12.10;;;20.70;99.90;;;;;;5037309;28;20478;-67
2022/08/07 08:39:27;;;;;;;12.70;12.00;;;21.00;99.90;;;;;;5036833;28;20466;-67
2022/08/07 08:42:01;;;;;;;11.87;11.17;;;21.50;98.60;;;;;;5037651;28;20993;-68
2022/08/07 08:44:37;;;;;;;12.63;12.03;;;22.70;97.80;;;;;;5038232;28;20477;-67
2022/08/07 08:47:08;;;;;;;12.33;11.73;;;23.80;92.80;;;;;;5036961;28;20601;-66
2022/08/07 08:49:42;;;;;;;12.60;12.03;;;24.70;87.30;;;;;;5036971;28;20468;-67
2022/08/07 08:52:15;;;;;;;12.00;11.50;;;25.20;79.50;;;;;;5035787;28;20484;-68
2022/08/07 08:54:49;;;;;;;11.83;11.33;;;25.70;71.90;;;;;;5030978;28;20459;-68
2022/08/07 08:57:25;;;;;;;11.70;11.20;;;26.50;67.10;;;;;;5035265;28;20467;-68
2022/08/07 09:00:01;;;;;;;11.50;11.10;;;26.90;62.70;;;;;;5037301;28;20681;-68
2022/08/07 09:02:36;;;;;;;13.30;12.60;;;27.20;59.80;;;;;;5035787;28;20779;-68
2022/08/07 09:05:12;;;;;;;12.20;11.70;;;27.50;54.70;;;;;;5037208;28;20470;-67
2022/08/07 09:07:48;;;;;;;12.40;11.70;;;27.70;52.20;;;;;;5037636;28;20470;-67
2022/08/07 09:10:20;;;;;;;11.53;11.03;;;28.20;52.40;;;;;;5037346;28;20980;-67
2022/08/07 09:12:53;;;;;;;11.67;11.07;;;27.60;49.20;;;;;;5036277;28;20875;-67
2022/08/07 09:15:36;;;;;;;11.47;10.97;;;28.10;49.30;;;;;;5035094;28;20582;-68
2022/08/07 09:18:17;;;;;;;12.90;12.40;;;28.70;45.80;;;;;;5036847;28;20560;-68
2022/08/07 09:20:51;;;;;;;11.93;11.33;;;29.40;43.90;;;;;;5040118;28;20479;-67
2022/08/07 09:23:31;;;;;;;12.13;11.60;;;30.30;43.00;;;;;;5059257;28;20567;-67
2022/08/07 09:26:11;;;;;;;11.63;11.13;;;30.50;41.80;;;;;;5041961;28;20864;-67
2022/08/07 09:28:40;;;;;;;11.20;10.80;;;30.30;40.90;;;;;;5035330;28;20468;-68
2022/08/07 09:31:16;;;;;;;11.17;10.70;;;27.80;40.30;;;;;;5035881;28;20482;-69
2022/08/07 09:33:58;;;;;;;12.10;11.60;;;28.50;40.50;;;;;;5035828;28;20478;-67
2022/08/07 09:36:31;;;;;;;10.90;10.40;;;28.90;40.80;;;;;;5035192;28;21036;-68
2022/08/07 09:39:09;;;;;;;11.47;10.90;;;28.30;40.10;;;;;;5033855;28;20546;-68
2022/08/07 09:41:40;;;;;;;11.43;10.93;;;28.50;40.20;;;;;;5033997;28;20616;-67
2022/08/07 09:44:17;;;;;;;11.33;10.73;;;29.00;40.00;;;;;;5035130;28;20455;-68
2022/08/07 09:47:02;;;;;;;11.70;10.93;;;30.20;40.40;;;;;;5026811;28;20692;-67
2022/08/07 09:49:45;;;;;;;12.40;11.73;;;30.90;39.20;;;;;;5056485;28;20957;-68
2022/08/07 09:52:21;;;;;;;12.27;11.67;;;30.70;38.30;;;;;;5035083;28;20489;-69
2022/08/07 09:54:55;;;;;;;12.13;11.50;;;30.00;37.90;;;;;;5036037;28;20904;-68
2022/08/07 09:57:47;;;;;;;11.30;10.90;;;29.30;38.20;;;;;;5035277;28;21899;-67
2022/08/07 10:00:15;;;;;;;12.20;11.60;;;29.60;38.40;;;;;;5033978;28;20468;-68
2022/08/07 10:03:21;;;;;;;12.03;11.53;;;29.60;37.00;;;;;;5035472;28;20554;-67
2022/08/07 10:06:12;;;;;;;12.10;11.40;;;30.50;36.40;;;;;;5010146;28;20609;-69
2022/08/07 10:09:05;;;;;;;11.43;10.67;;;29.60;36.70;;;;;;4989794;28;20557;-68
2022/08/07 10:11:44;;;;;;;11.67;10.90;;;29.20;37.70;;;;;;5034501;28;20538;-67
2022/08/07 10:14:28;;;;;;;11.67;11.17;;;29.30;37.40;;;;;;5033431;28;20467;-69
2022/08/07 10:17:06;;;;;;;11.87;11.40;;;29.90;37.70;;;;;;5034293;28;20490;-69
2022/08/07 10:19:46;;;;;;;11.50;10.90;;;30.70;36.30;;;;;;5035368;28;20475;-69
2022/08/07 10:22:32;;;;;;;11.80;11.30;;;31.00;36.00;;;;;;5034837;28;20512;-68
2022/08/07 10:25:13;;;;;;;11.57;11.17;;;31.40;35.60;;;;;;5034684;28;20573;-68
2022/08/07 10:28:22;;;;;;;11.20;10.70;;;32.00;34.90;;;;;;5035269;28;20463;-69
2022/08/07 10:31:07;;;;;;;11.63;11.13;;;31.50;33.60;;;;;;5005417;28;22437;-68
2022/08/07 10:34:05;;;;;;;11.23;10.83;;;30.40;35.10;;;;;;5035675;28;20463;-68
2022/08/07 10:36:57;;;;;;;11.60;11.10;;;30.90;35.10;;;;;;5017849;28;20547;-68
2022/08/07 10:39:34;;;;;;;11.90;11.30;;;32.10;32.50;;;;;;5033951;28;20905;-69
2022/08/07 10:42:13;;;;;;;11.30;10.80;;;33.00;31.40;;;;;;5032705;28;20478;-69
2022/08/07 10:44:48;;;;;;;11.00;10.50;;;32.40;32.20;;;;;;5033033;28;20991;-68
2022/08/07 10:47:31;;;;;;;11.30;10.90;;;32.10;32.60;;;;;;5033372;28;20478;-68
2022/08/07 10:50:05;;;;;;;11.20;10.70;;;31.40;34.40;;;;;;5033521;28;20501;-68
2022/08/07 10:52:45;;;;;;;10.70;10.07;;;30.20;34.00;;;;;;5033608;28;20492;-68
2022/08/07 10:55:17;;;;;;;11.17;10.40;;;30.70;33.90;;;;;;5031966;28;20474;-67
2022/08/07 10:57:52;;;;;;;10.90;10.40;;;29.70;34.20;;;;;;5033346;28;20900;-68
2022/08/07 11:00:20;;;;;;;10.50;10.10;;;29.60;34.30;;;;;;5033016;28;20877;-69
2022/08/07 11:02:56;;;;;;;10.07;9.63;;;29.50;34.80;;;;;;5032384;28;20640;-68
2022/08/07 11:05:32;;;;;;;11.07;10.67;;;30.30;34.50;;;;;;5032495;28;21082;-68
2022/08/07 11:08:10;;;;;;;11.50;11.00;;;30.70;33.70;;;;;;5032907;28;20463;-68
2022/08/07 11:10:43;;;;;;;11.20;10.53;;;30.40;33.60;;;;;;5033412;28;20485;-69
2022/08/07 11:13:15;;;;;;;11.40;10.80;;;30.70;33.80;;;;;;5033081;28;20456;-69
2022/08/07 11:15:45;;;;;;;11.60;11.20;;;31.20;32.60;;;;;;5033293;28;20498;-68
2022/08/07 11:18:19;;;;;;;11.20;10.70;;;32.10;32.80;;;;;;5035099;28;20459;-68
2022/08/07 11:20:55;;;;;;;11.20;10.70;;;33.00;30.60;;;;;;5034284;28;20854;-68
2022/08/07 11:23:34;;;;;;;11.50;10.63;;;32.70;30.20;;;;;;5035271;28;21083;-68
2022/08/07 11:26:10;;;;;;;11.20;10.73;;;32.30;30.60;;;;;;5034292;28;20467;-69
2022/08/07 11:28:45;;;;;;;11.27;10.77;;;32.30;32.20;;;;;;5033215;28;20462;-68
2022/08/07 11:31:21;;;;;;;11.43;10.90;;;32.60;31.50;;;;;;5033808;28;20533;-69
2022/08/07 11:33:54;;;;;;;11.70;10.90;;;32.70;32.00;;;;;;5033840;28;20462;-68
2022/08/07 11:36:36;;;;;;;11.40;10.90;;;33.30;30.60;;;;;;5033616;28;20474;-68
2022/08/07 11:39:17;;;;;;;10.70;10.20;;;33.60;30.10;;;;;;5038601;28;20498;-68
2022/08/07 11:41:50;;;;;;;10.87;10.47;;;32.40;30.10;;;;;;5038141;28;20490;-69
2022/08/07 11:44:28;;;;;;;10.17;9.77;;;32.50;30.70;;;;;;5038650;28;20918;-68
2022/08/07 11:47:04;;;;;;;10.40;9.90;;;32.10;31.60;;;;;;5037342;28;20540;-68
2022/08/07 11:49:55;;;;;;;9.83;9.43;;;31.30;31.00;;;;;;5037759;28;20460;-67
2022/08/07 11:52:36;;;;;;;10.20;9.77;;;30.70;31.00;;;;;;5038705;28;21203;-68
2022/08/07 11:55:26;;;;;;;10.70;10.20;;;30.40;32.30;;;;;;5038236;28;20451;-68
2022/08/07 11:57:59;;;;;;;10.47;10.07;;;31.00;31.20;;;;;;5038083;28;20477;-68
2022/08/07 12:00:32;;;;;;;11.20;10.80;;;30.90;31.00;;;;;;5038688;28;20467;-68
2022/08/07 12:03:29;;;;;;;10.80;10.30;;;31.30;31.40;;;;;;5037943;28;20819;-69
2022/08/07 12:06:10;;;;;;;10.83;10.23;;;32.20;30.00;;;;;;5031809;28;21308;-68
2022/08/07 12:08:44;;;;;;;11.40;10.90;;;33.00;29.80;;;;;;5037562;28;20463;-68
2022/08/07 12:11:16;;;;;;;11.30;10.80;;;33.30;29.30;;;;;;5037325;28;20823;-68
2022/08/07 12:13:50;;;;;;;11.73;10.93;;;33.10;28.90;;;;;;5037908;28;20475;-68
2022/08/07 12:16:22;;;;;;;10.80;10.30;;;33.20;28.60;;;;;;5037035;28;21086;-70
2022/08/07 12:18:55;;;;;;;11.20;10.70;;;33.60;29.20;;;;;;5037369;28;20465;-69
2022/08/07 12:21:33;;;;;;;11.67;11.00;;;33.40;30.00;;;;;;5037625;28;20477;-69
2022/08/07 12:24:08;;;;;;;11.30;10.80;;;32.80;31.00;;;;;;5037762;28;20506;-68
2022/08/07 12:26:42;;;;;;;11.63;10.93;;;33.30;31.00;;;;;;5037185;28;20785;-68
2022/08/07 12:29:15;;;;;;;11.30;10.70;;;33.50;30.70;;;;;;5037074;28;20470;-67
2022/08/07 12:31:49;;;;;;;11.13;10.53;;;33.80;31.10;;;;;;5036583;28;20506;-68
2022/08/07 12:34:18;;;;;;;12.17;11.37;;;33.20;30.00;;;;;;5036108;28;20470;-68
2022/08/07 12:36:45;;;;;;;11.70;10.60;;;32.10;31.20;;;;;;5036975;28;20467;-69
2022/08/07 12:39:14;;;;;;;11.30;10.60;;;32.00;31.30;;;;;;5043120;28;20832;-68
2022/08/07 12:41:43;;;;;;;12.73;12.00;;;32.10;31.00;;;;;;5061727;28;20484;-68
2022/08/07 12:44:11;;;;;;;11.70;11.10;;;32.40;31.20;;;;;;5060707;28;20974;-68
2022/08/07 12:46:52;;;;;;;12.77;11.80;;;33.20;31.50;;;;;;5055267;28;20487;-68
2022/08/07 12:49:32;;;;;;;11.97;11.47;;;33.50;30.50;;;;;;5042882;28;21413;-69
2022/08/07 12:52:11;;;;;;;11.70;11.07;;;33.20;31.40;;;;;;5037320;28;21012;-69
2022/08/07 12:54:44;;;;;;;11.17;10.57;;;33.00;30.90;;;;;;5036874;28;20863;-68
2022/08/07 12:57:14;;;;;;;11.47;10.60;;;33.60;30.30;;;;;;5035129;28;20957;-69
2022/08/07 12:59:43;;;;;;;11.80;11.10;;;33.70;30.00;;;;;;5035424;28;22430;-69
2022/08/07 13:02:27;;;;;;;11.27;10.70;;;34.30;29.70;;;;;;5034495;28;20482;-68